createdAt,value
2023-04-23T00:01:30.666Z,100077.06
2023-04-23T00:04:36.741Z,100085.00
2023-04-23T00:07:39.134Z,100077.06
2023-04-23T00:10:41.086Z,100081.47
2023-04-23T00:13:43.025Z,100057.25
2023-04-23T00:16:45.427Z,100080.44
2023-04-23T00:19:47.642Z,100068.50
2023-04-23T00:22:49.462Z,100063.28
2023-04-23T00:25:51.298Z,100066.09
2023-04-23T00:28:53.042Z,100073.00
2023-04-23T00:31:55.192Z,100067.88
2023-04-23T00:34:57.190Z,100057.72
2023-04-23T00:37:59.088Z,100074.00
2023-04-23T00:41:00.899Z,100056.03
2023-04-23T00:44:03.620Z,100067.25
2023-04-23T00:47:07.274Z,100070.19
2023-04-23T00:50:09.778Z,100067.66
2023-04-23T00:53:12.525Z,100080.06
2023-04-23T00:56:14.874Z,100066.19
2023-04-23T00:59:16.725Z,100055.97
2023-04-23T01:02:18.723Z,100021.59
2023-04-23T01:05:23.467Z,100097.00
2023-04-23T01:08:26.351Z,100077.75
2023-04-23T01:11:29.595Z,100073.47
2023-04-23T01:14:31.702Z,100068.19
2023-04-23T01:17:34.567Z,100059.97
2023-04-23T01:20:37.673Z,100081.94
2023-04-23T01:23:39.971Z,100077.78
2023-04-23T01:26:42.322Z,100073.34
2023-04-23T01:29:44.502Z,100076.97
2023-04-23T01:32:48.606Z,100055.59
2023-04-23T01:35:51.328Z,100078.25
2023-04-23T01:38:53.293Z,100085.47
2023-04-23T01:41:55.530Z,100076.19
2023-04-23T01:44:57.535Z,100093.78
2023-04-23T01:48:03.008Z,100087.28
2023-04-23T01:51:05.050Z,100072.94
2023-04-23T01:54:07.440Z,100086.06
2023-04-23T01:57:10.356Z,100094.44
2023-04-23T02:00:14.592Z,100090.16
2023-04-23T02:03:17.078Z,100088.59
2023-04-23T02:06:19.127Z,100082.09
2023-04-23T02:09:21.379Z,100081.34
2023-04-23T02:12:23.179Z,100074.28
2023-04-23T02:15:25.870Z,100075.34
2023-04-23T02:18:28.373Z,100052.06
2023-04-23T02:21:31.642Z,100070.03
2023-04-23T02:24:34.053Z,100081.28
2023-04-23T02:27:36.069Z,100063.91
2023-04-23T02:30:38.034Z,100076.06
2023-04-23T02:33:42.600Z,100070.91
2023-04-23T02:36:44.589Z,100075.19
2023-04-23T02:39:46.529Z,100052.22
2023-04-23T02:42:49.322Z,100082.94
2023-04-23T02:45:51.173Z,100085.53
2023-04-23T02:48:53.240Z,100078.78
2023-04-23T02:51:55.365Z,100092.56
2023-04-23T02:54:57.329Z,100083.91
2023-04-23T02:57:59.964Z,100103.94
2023-04-23T03:01:03.133Z,100087.59
2023-04-23T03:04:05.469Z,100104.94
2023-04-23T03:07:07.584Z,100094.75
2023-04-23T03:10:09.934Z,100096.44
2023-04-23T03:13:11.859Z,100098.44
2023-04-23T03:16:14.188Z,100108.97
2023-04-23T03:19:16.591Z,100122.00
2023-04-23T03:22:18.351Z,100074.69
2023-04-23T03:25:20.654Z,100103.09
2023-04-23T03:28:22.500Z,100102.41
2023-04-23T03:31:24.519Z,100110.31
2023-04-23T03:34:26.970Z,100118.16
2023-04-23T03:37:28.746Z,100123.22
2023-04-23T03:40:33.193Z,100112.00
2023-04-23T03:43:38.138Z,100088.00
2023-04-23T03:46:39.927Z,100109.50
2023-04-23T03:49:42.048Z,100090.59
2023-04-23T03:52:43.968Z,100102.69
2023-04-23T03:55:52.335Z,100120.91
2023-04-23T03:58:54.360Z,100119.19
2023-04-23T04:01:56.342Z,100101.19
2023-04-23T04:05:01.546Z,100112.47
2023-04-23T04:08:05.067Z,100102.13
2023-04-23T04:11:06.782Z,100115.78
2023-04-23T04:14:08.532Z,100082.22
2023-04-23T04:17:10.652Z,100119.25
2023-04-23T04:20:12.750Z,100110.06
2023-04-23T04:23:14.501Z,100135.16
2023-04-23T04:26:16.256Z,100129.03
2023-04-23T04:29:18.153Z,100115.84
2023-04-23T04:32:20.013Z,100120.00
2023-04-23T04:35:22.059Z,100114.25
2023-04-23T04:38:23.914Z,100128.91
2023-04-23T04:41:26.161Z,100121.84
2023-04-23T04:44:28.192Z,100122.66
2023-04-23T04:47:29.951Z,100118.22
2023-04-23T04:50:31.936Z,100126.81
2023-04-23T04:53:36.074Z,100139.63
2023-04-23T04:56:37.886Z,100115.19
2023-04-23T04:59:40.250Z,100117.72
2023-04-23T05:02:42.375Z,100139.03
2023-04-23T05:05:45.323Z,100128.97
2023-04-23T05:08:49.911Z,100118.38
2023-04-23T05:11:52.002Z,100123.34
2023-04-23T05:14:54.410Z,100127.59
2023-04-23T05:17:56.676Z,100125.53
2023-04-23T05:20:58.766Z,100145.28
2023-04-23T05:24:00.731Z,100137.00
2023-04-23T05:27:02.578Z,100140.22
2023-04-23T05:30:06.629Z,100119.38
2023-04-23T05:33:08.833Z,100128.38
2023-04-23T05:36:10.917Z,100140.31
2023-04-23T05:39:13.365Z,100125.72
2023-04-23T05:42:15.155Z,100119.56
2023-04-23T05:45:18.879Z,100121.34
2023-04-23T05:48:20.816Z,100133.97
2023-04-23T05:51:22.672Z,100134.72
2023-04-23T05:54:24.385Z,100133.00
2023-04-23T05:57:26.699Z,100142.59
2023-04-23T06:00:30.108Z,100095.09
2023-04-23T06:03:32.073Z,100145.78
2023-04-23T06:06:34.025Z,100134.41
2023-04-23T06:09:36.068Z,100139.09
2023-04-23T06:12:39.933Z,100123.09
2023-04-23T06:15:41.742Z,100141.69
2023-04-23T06:18:43.581Z,100126.59
2023-04-23T06:21:45.790Z,100153.25
2023-04-23T06:24:47.763Z,100136.97
2023-04-23T06:27:50.141Z,100123.78
2023-04-23T06:30:56.047Z,100100.28
2023-04-23T06:33:58.731Z,100137.69
2023-04-23T06:37:00.775Z,100140.06
2023-04-23T06:40:02.562Z,100135.78
2023-04-23T06:43:05.400Z,100115.81
2023-04-23T06:46:25.797Z,100110.56
2023-04-23T06:49:27.617Z,100116.28
2023-04-23T06:52:29.483Z,100135.16
2023-04-23T06:55:33.388Z,100133.50
2023-04-23T06:58:35.245Z,100106.72
2023-04-23T07:01:47.668Z,100138.34
2023-04-23T07:04:49.578Z,100140.19
2023-04-23T07:07:51.419Z,100129.09
2023-04-23T07:10:54.613Z,100130.56
2023-04-23T07:13:56.629Z,100117.28
2023-04-23T07:16:59.320Z,100127.06
2023-04-23T07:20:04.885Z,100118.19
2023-04-23T07:23:06.758Z,100118.72
2023-04-23T07:26:09.707Z,100141.47
2023-04-23T07:29:14.171Z,100122.22
2023-04-23T07:32:16.611Z,100133.63
2023-04-23T07:35:28.981Z,100120.59
2023-04-23T07:38:37.244Z,100140.00
2023-04-23T07:41:39.199Z,100137.03
2023-04-23T07:44:41.157Z,100139.97
2023-04-23T07:47:46.622Z,100133.88
2023-04-23T07:50:48.726Z,100152.19
2023-04-23T07:53:54.251Z,100139.00
2023-04-23T07:56:57.368Z,100139.16
2023-04-23T08:00:00.970Z,100141.41
2023-04-23T08:03:02.804Z,100134.13
2023-04-23T08:06:04.942Z,100132.19
2023-04-23T08:09:06.766Z,100105.88
2023-04-23T08:12:08.553Z,100128.22
2023-04-23T08:15:10.869Z,100128.00
2023-04-23T08:18:16.104Z,100136.69
2023-04-23T08:21:17.957Z,100137.88
2023-04-23T08:24:19.693Z,100134.34
2023-04-23T08:27:22.806Z,100137.22
2023-04-23T08:30:25.854Z,100134.66
2023-04-23T08:33:30.114Z,100134.88
2023-04-23T08:36:32.445Z,100130.91
2023-04-23T08:39:34.989Z,100131.66
2023-04-23T08:42:53.697Z,100130.78
2023-04-23T08:45:55.935Z,100141.28
2023-04-23T08:49:03.084Z,100106.00
2023-04-23T08:52:24.168Z,100115.41
2023-04-23T08:55:26.270Z,100128.88
2023-04-23T08:58:28.455Z,100108.75
2023-04-23T09:01:31.046Z,100103.00
2023-04-23T09:04:33.617Z,100114.94
2023-04-23T09:07:36.342Z,100122.31
2023-04-23T09:10:41.614Z,100136.94
2023-04-23T09:13:43.469Z,100121.13
2023-04-23T09:16:45.450Z,100119.63
2023-04-23T09:19:47.653Z,100122.59
2023-04-23T09:22:51.497Z,100125.16
2023-04-23T09:25:54.028Z,100118.53
2023-04-23T09:28:56.057Z,100086.09
2023-04-23T09:32:09.885Z,100112.56
2023-04-23T09:35:21.958Z,100119.44
2023-04-23T09:38:23.794Z,100120.47
2023-04-23T09:41:27.786Z,100134.59
2023-04-23T09:44:32.314Z,100105.59
2023-04-23T09:47:38.203Z,100102.16
2023-04-23T09:50:43.337Z,100100.09
2023-04-23T09:53:46.089Z,100111.59
2023-04-23T09:56:58.894Z,100063.78
2023-04-23T10:03:15.927Z,99985.75
2023-04-23T10:06:36.871Z,100074.03
2023-04-23T10:09:42.303Z,100051.03
2023-04-23T10:12:54.453Z,100081.19
2023-04-23T10:16:14.035Z,100068.00
2023-04-23T10:19:23.297Z,100076.72
2023-04-23T10:22:28.027Z,100053.91
2023-04-23T10:25:30.100Z,100062.28
2023-04-23T10:28:33.831Z,100057.41
2023-04-23T10:31:36.950Z,100038.03
2023-04-23T10:34:40.650Z,100023.47
2023-04-23T10:37:44.630Z,100038.53
2023-04-23T10:40:51.250Z,100046.13
2023-04-23T10:43:53.941Z,100046.28
2023-04-23T10:46:58.774Z,100040.59
2023-04-23T10:50:19.130Z,100033.09
2023-04-23T10:53:22.110Z,100039.22
2023-04-23T10:56:24.181Z,100039.97
2023-04-23T10:59:26.966Z,100031.81
2023-04-23T11:02:44.207Z,100025.28
2023-04-23T11:05:47.408Z,100022.19
2023-04-23T11:08:56.972Z,100040.06
2023-04-23T11:12:00.030Z,100008.34
2023-04-23T11:15:14.786Z,100013.84
2023-04-23T11:18:16.592Z,100023.00
2023-04-23T11:21:19.196Z,100019.44
2023-04-23T11:24:22.865Z,100028.84
2023-04-23T11:27:24.729Z,99994.25
2023-04-23T11:30:29.390Z,100028.19
2023-04-23T11:33:31.440Z,100003.56
2023-04-23T11:36:33.937Z,99997.22
2023-04-23T11:39:35.716Z,99991.84
2023-04-23T11:42:47.699Z,99987.72
2023-04-23T11:45:49.525Z,100002.03
2023-04-23T11:48:51.448Z,99987.09
2023-04-23T11:51:53.290Z,99988.34
2023-04-23T11:54:55.089Z,99986.44
2023-04-23T11:57:57.781Z,99985.31
2023-04-23T12:01:00.775Z,99984.66
2023-04-23T12:04:13.556Z,99976.91
2023-04-23T12:07:25.894Z,99953.47
2023-04-23T12:10:28.625Z,99963.13
2023-04-23T12:13:33.781Z,99970.31
2023-04-23T12:16:36.765Z,99967.31
2023-04-23T12:19:40.545Z,99964.56
2023-04-23T12:22:42.595Z,99944.41
2023-04-23T12:25:44.435Z,99889.56
2023-04-23T12:28:55.112Z,99912.13
2023-04-23T12:31:59.708Z,99908.72
2023-04-23T12:35:07.201Z,99939.13
2023-04-23T12:38:22.218Z,99939.31
2023-04-23T12:41:24.077Z,99928.59
2023-04-23T12:44:26.864Z,99936.78
2023-04-23T12:47:28.852Z,99936.00
2023-04-23T12:50:30.898Z,99921.38
2023-04-23T12:53:32.699Z,99926.81
2023-04-23T12:56:36.263Z,99909.28
2023-04-23T12:59:38.452Z,99916.06
2023-04-23T13:02:41.608Z,99907.41
2023-04-23T13:05:43.575Z,99905.53
2023-04-23T13:08:45.421Z,99898.16
2023-04-23T13:11:49.803Z,99875.63
2023-04-23T13:14:53.710Z,99901.34
2023-04-23T13:17:55.545Z,99896.41
2023-04-23T13:20:58.513Z,99860.13
2023-04-23T13:24:00.377Z,99883.94
2023-04-23T13:27:02.269Z,99884.53
2023-04-23T13:30:04.492Z,99882.28
2023-04-23T13:33:06.307Z,99851.19
2023-04-23T13:36:09.045Z,99866.19
2023-04-23T13:39:13.327Z,99869.19
2023-04-23T13:42:15.095Z,99866.63
2023-04-23T13:45:16.964Z,99859.50
2023-04-23T13:48:19.457Z,99830.13
2023-04-23T13:51:34.077Z,99851.66
2023-04-23T13:54:37.731Z,99829.13
2023-04-23T13:57:40.327Z,99840.84
2023-04-23T14:00:43.026Z,99852.38
2023-04-23T14:03:45.372Z,99847.00
2023-04-23T14:06:47.163Z,99819.97
2023-04-23T14:09:52.765Z,99837.81
2023-04-23T14:12:55.943Z,99839.34
2023-04-23T14:15:57.890Z,99822.19
2023-04-23T14:18:59.771Z,99832.81
2023-04-23T14:22:01.921Z,99823.13
2023-04-23T14:25:09.777Z,99821.53
2023-04-23T14:28:34.582Z,99816.78
2023-04-23T14:31:41.099Z,99820.75
2023-04-23T14:34:44.673Z,99825.72
2023-04-23T14:37:46.488Z,99821.31
2023-04-23T14:40:48.376Z,99819.47
2023-04-23T14:43:50.400Z,99812.97
2023-04-23T14:46:52.917Z,99810.13
2023-04-23T14:49:55.073Z,99807.59
2023-04-23T14:52:58.876Z,99809.31
2023-04-23T14:56:00.735Z,99778.28
2023-04-23T14:59:02.625Z,99798.97
2023-04-23T15:02:04.645Z,99816.97
2023-04-23T15:05:09.981Z,99806.47
2023-04-23T15:08:13.188Z,99801.72
2023-04-23T15:11:14.956Z,99812.38
2023-04-23T15:14:26.029Z,99799.75
2023-04-23T15:17:27.871Z,99804.13
2023-04-23T15:20:29.678Z,99789.94
2023-04-23T15:23:31.966Z,99799.69
2023-04-23T15:26:34.190Z,99796.69
2023-04-23T15:29:36.002Z,99790.47
2023-04-23T15:32:37.890Z,99787.91
2023-04-23T15:35:39.740Z,99782.94
2023-04-23T15:38:41.796Z,99785.03
2023-04-23T15:41:45.498Z,99776.75
2023-04-23T15:44:48.846Z,99756.41
2023-04-23T15:47:53.907Z,99744.50
2023-04-23T15:50:57.174Z,99778.06
2023-04-23T15:53:59.102Z,99776.66
2023-04-23T15:57:01.809Z,99781.19
2023-04-23T16:00:04.233Z,99778.16
2023-04-23T16:03:15.205Z,99779.84
2023-04-23T16:06:17.291Z,99774.16
2023-04-23T16:09:19.123Z,99771.13
2023-04-23T16:12:21.191Z,99775.78
2023-04-23T16:15:23.220Z,99757.63
2023-04-23T16:18:25.066Z,99736.66
2023-04-23T16:21:28.155Z,99751.94
2023-04-23T16:24:30.160Z,99739.91
2023-04-23T16:27:31.993Z,99755.75
2023-04-23T16:30:33.918Z,99767.53
2023-04-23T16:33:35.758Z,99758.78
2023-04-23T16:36:37.763Z,99749.09
2023-04-23T16:39:40.019Z,99755.66
2023-04-23T16:42:42.860Z,99750.06
2023-04-23T16:45:44.654Z,99748.13
2023-04-23T16:48:46.867Z,99762.25
2023-04-23T16:51:49.956Z,99771.25
2023-04-23T16:55:01.767Z,99737.19
2023-04-23T16:58:04.879Z,99741.09
2023-04-23T17:01:10.876Z,99760.56
2023-04-23T17:04:12.853Z,99745.22
2023-04-23T17:07:15.265Z,99757.09
2023-04-23T17:10:18.842Z,99740.78
2023-04-23T17:13:20.679Z,99746.13
2023-04-23T17:16:23.083Z,99754.50
2023-04-23T17:19:24.963Z,99750.94
2023-04-23T17:22:26.831Z,99749.47
2023-04-23T17:25:28.785Z,99739.94
2023-04-23T17:28:32.156Z,99744.06
2023-04-23T17:31:35.933Z,99746.41
2023-04-23T17:34:39.573Z,99718.88
2023-04-23T17:37:41.622Z,99750.97
2023-04-23T17:40:43.418Z,99756.88
2023-04-23T17:43:45.242Z,99738.06
2023-04-23T17:46:47.637Z,99750.28
2023-04-23T17:49:50.822Z,99753.06
2023-04-23T17:52:52.732Z,99764.44
2023-04-23T17:55:58.668Z,99766.22
2023-04-23T17:59:00.751Z,99772.22
2023-04-23T18:02:04.142Z,99777.03
2023-04-23T18:05:11.471Z,99770.84
2023-04-23T18:08:17.351Z,99776.50
2023-04-23T18:11:19.219Z,99771.25
2023-04-23T18:14:21.091Z,99776.59
2023-04-23T18:17:25.811Z,99769.31
2023-04-23T18:20:28.063Z,99770.81
2023-04-23T18:23:31.306Z,99786.06
2023-04-23T18:26:33.919Z,99785.28
2023-04-23T18:29:35.995Z,99802.56
2023-04-23T18:32:43.178Z,99812.69
2023-04-23T18:35:48.131Z,99794.59
2023-04-23T18:38:50.627Z,99809.63
2023-04-23T18:41:52.615Z,99798.94
2023-04-23T18:44:55.636Z,99755.56
2023-04-23T18:48:03.678Z,99712.63
2023-04-23T18:51:19.792Z,99799.41
2023-04-23T18:54:21.991Z,99819.44
2023-04-23T18:57:24.206Z,99813.84
2023-04-23T19:00:26.190Z,99807.22
2023-04-23T19:06:31.420Z,99805.81
2023-04-23T19:09:33.227Z,99819.72
2023-04-23T19:12:35.029Z,99827.72
2023-04-23T19:15:36.842Z,99811.84
2023-04-23T19:18:38.643Z,99828.28
2023-04-23T19:21:40.529Z,99823.53
2023-04-23T19:24:42.299Z,99814.25
2023-04-23T19:27:44.132Z,99813.84
2023-04-23T19:30:46.170Z,99825.25
2023-04-23T19:33:48.188Z,99819.63
2023-04-23T19:36:49.932Z,99820.88
2023-04-23T19:39:51.876Z,99828.66
2023-04-23T19:42:53.649Z,99801.19
2023-04-23T19:45:57.104Z,99797.09
2023-04-23T19:48:59.566Z,99806.31
2023-04-23T19:52:03.449Z,99794.16
2023-04-23T19:55:05.730Z,99808.69
2023-04-23T19:58:07.554Z,99799.75
2023-04-23T20:01:10.773Z,99810.19
2023-04-23T20:04:12.804Z,99815.97
2023-04-23T20:07:14.758Z,99812.38
2023-04-23T20:10:17.596Z,99802.19
2023-04-23T20:13:20.604Z,99806.75
2023-04-23T20:16:23.248Z,99815.22
2023-04-23T20:19:27.887Z,99780.94
2023-04-23T20:22:30.706Z,99789.94
2023-04-23T20:25:32.536Z,99805.25
2023-04-23T20:28:34.561Z,99802.09
2023-04-23T20:31:36.757Z,99796.97
2023-04-23T20:34:38.590Z,99825.16
2023-04-23T20:37:40.847Z,99791.97
2023-04-23T20:40:42.868Z,99820.75
2023-04-23T20:43:45.085Z,99816.72
2023-04-23T20:46:47.395Z,99813.72
2023-04-23T20:49:49.119Z,99809.72
2023-04-23T20:52:50.880Z,99806.97
2023-04-23T20:55:52.690Z,99793.44
2023-04-23T20:58:54.556Z,99810.94
2023-04-23T21:01:56.395Z,99807.66
2023-04-23T21:04:58.210Z,99790.38
2023-04-23T21:07:59.948Z,99807.66
2023-04-23T21:11:02.037Z,99812.63
2023-04-23T21:14:08.502Z,99808.38
2023-04-23T21:17:10.620Z,99796.44
2023-04-23T21:20:12.519Z,99798.94
2023-04-23T21:23:14.386Z,99806.13
2023-04-23T21:26:16.252Z,99800.66
2023-04-23T21:29:18.052Z,99801.00
2023-04-23T21:32:19.918Z,99795.88
2023-04-23T21:35:21.743Z,99733.31
2023-04-23T21:38:23.506Z,99781.16
2023-04-23T21:41:25.757Z,99792.28
2023-04-23T21:44:28.702Z,99798.34
2023-04-23T21:47:30.449Z,99782.94
2023-04-23T21:50:33.233Z,99787.22
2023-04-23T21:53:35.149Z,99781.50
2023-04-23T21:56:37.287Z,99790.13
2023-04-23T21:59:39.089Z,99792.72
2023-04-23T22:02:46.514Z,99767.88
2023-04-23T22:05:49.077Z,99793.75
2023-04-23T22:08:52.462Z,99763.59
2023-04-23T22:12:01.902Z,99779.09
2023-04-23T22:15:06.709Z,99779.84
2023-04-23T22:18:08.659Z,99777.41
2023-04-23T22:21:10.480Z,99783.56
2023-04-23T22:24:12.249Z,99789.28
2023-04-23T22:27:14.430Z,99776.03
2023-04-23T22:30:16.374Z,99786.75
2023-04-23T22:33:18.346Z,99788.53
2023-04-23T22:36:20.345Z,99784.09
2023-04-23T22:39:22.177Z,99781.25
2023-04-23T22:42:25.707Z,99785.78
2023-04-23T22:45:27.505Z,99726.63
2023-04-23T22:48:29.341Z,99773.66
2023-04-23T22:51:33.631Z,99783.22
2023-04-23T22:54:35.599Z,99744.03
2023-04-23T22:57:37.403Z,99760.63
2023-04-23T23:00:39.363Z,99755.31
2023-04-23T23:03:41.207Z,99754.72
2023-04-23T23:06:43.342Z,99760.78
2023-04-23T23:09:45.468Z,99756.09
2023-04-23T23:12:47.311Z,99754.97
2023-04-23T23:15:49.118Z,99756.13
2023-04-23T23:18:51.260Z,99760.47
2023-04-23T23:21:53.216Z,99742.28
2023-04-23T23:24:55.149Z,99746.53
2023-04-23T23:27:57.387Z,99759.03
2023-04-23T23:30:59.490Z,99745.34
2023-04-23T23:34:01.360Z,99747.38
2023-04-23T23:37:03.167Z,99750.97
2023-04-23T23:40:05.796Z,99742.66
2023-04-23T23:43:08.034Z,99740.00
2023-04-23T23:46:10.670Z,99724.84
2023-04-23T23:49:12.581Z,99740.66
2023-04-23T23:52:14.379Z,99739.53
2023-04-23T23:55:16.409Z,99737.81
2023-04-23T23:58:18.206Z,99726.25
